Terminal Aerodrome Forecast
Issued by NWS Wichita, KS

Home | Current Version | Previous Version | Text Only | Print | Product List | Glossary On
Versions: 1 2 3 4 5 6 7 8 9 10 11 12 13
623
FTUS43 KICT 121122
TAFICT
TAF
KICT 121122Z 1212/1312 32008KT P6SM SKC
     FM121800 28010KT P6SM SKC
     FM122100 23009KT P6SM SKC
     FM130000 20007KT P6SM SKC=

USA.gov is the U.S. government's official web portal to all federal, state and local government web resources and services.